Time;durP1;ratioP1;P1;durP2;ratioP2;P2;SDS_P1;SDS_P2;PMS_P1;PMS_P2;Temp;Humidity;BMP_temperature;BMP_pressure;BME280_temperature;BME280_humidity;BME280_pressure;Samples;Min_cycle;Max_cycle;Signal;HPM_P1;HPM_P2
2021/11/22 00:01:23;;;;;;;;;;;;;;;4.92;100.00;99229.75;5015581;28;19921;-69
2021/11/22 00:03:48;;;;;;;;;;;;;;;4.91;100.00;99243.38;5014731;28;20005;-69
2021/11/22 00:06:14;;;;;;;;;;;;;;;4.84;100.00;99246.84;5014715;28;20015;-68
2021/11/22 00:08:41;;;;;;;;;;;;;;;4.84;100.00;99241.72;5015958;28;19927;-67
2021/11/22 00:11:09;;;;;;;;;;;;;;;4.66;100.00;99246.91;5033846;28;19924;-69
2021/11/22 00:13:35;;;;;;;;;;;;;;;4.81;100.00;99252.81;5017084;28;20637;-69
2021/11/22 00:16:01;;;;;;;;;;;;;;;4.87;100.00;99261.28;5034207;28;19929;-69
2021/11/22 00:18:29;;;;;;;;;;;;;;;4.73;100.00;99261.34;5034012;28;20287;-68
2021/11/22 00:20:54;;;;;;;;;;;;;;;4.63;100.00;99259.66;5034139;28;19971;-68
2021/11/22 00:23:20;;;;;;;;;;;;;;;4.59;99.19;99267.34;5016589;28;20437;-68
2021/11/22 00:25:45;;;;;;;;;;;;;;;4.61;97.86;99270.72;5038162;28;19924;-68
2021/11/22 00:28:13;;;;;;;;;;;;;;;4.51;97.15;99273.31;5035727;28;19928;-69
2021/11/22 03:28:17;;;;;;;;;;;;;;;5.38;100.00;99459.34;5007653;28;19932;-68
2021/11/22 03:30:43;;;;;;;;;;;;;;;5.28;100.00;99459.38;5003959;28;20393;-67
2021/11/22 03:33:08;;;;;;;;;;;;;;;5.54;100.00;99456.72;5000431;28;19922;-68
2021/11/22 03:35:34;;;;;;;;;;;;;;;5.37;100.00;99456.78;5003724;28;19933;-69
2021/11/22 03:37:59;;;;;;;;;;;;;;;5.80;100.00;99466.81;5001851;28;19929;-68
2021/11/22 03:40:25;;;;;;;;;;;;;;;5.60;100.00;99467.75;5003099;28;19925;-67
2021/11/22 03:43:36;;;;;;;;;;;;;;;5.41;100.00;99461.03;5002680;28;19925;-68
2021/11/22 03:45:41;;;;;;;;;;;;;;;5.41;100.00;99464.44;4992476;28;19921;-68
2021/11/22 03:48:07;;;;;;;;;;;;;;;5.63;100.00;99474.53;5001747;28;20312;-68
2021/11/22 03:50:33;;;;;;;;;;;;;;;5.64;100.00;99466.03;4999653;28;19917;-68
2021/11/22 03:52:58;;;;;;;;;;;;;;;5.06;100.00;99473.88;5001149;28;19925;-69
2021/11/22 03:55:24;;;;;;;;;;;;;;;5.35;100.00;99478.91;4998995;28;20764;-68
2021/11/22 03:57:49;;;;;;;;;;;;;;;5.37;100.00;99478.06;4996724;28;20015;-68
2021/11/22 04:00:15;;;;;;;;;;;;;;;5.50;100.00;99485.69;5007880;28;19924;-67
2021/11/22 04:02:41;;;;;;;;;;;;;;;5.54;100.00;99489.91;4998706;28;19935;-68
2021/11/22 04:05:07;;;;;;;;;;;;;;;5.61;100.00;99491.59;5008437;28;19917;-69
2021/11/22 04:07:33;;;;;;;;;;;;;;;5.28;100.00;99503.63;5001349;28;20004;-67
2021/11/22 04:09:58;;;;;;;;;;;;;;;5.54;100.00;99511.22;5001641;28;20021;-68
2021/11/22 04:12:25;;;;;;;;;;;;;;;5.81;100.00;99519.63;5003323;28;19932;-69
2021/11/22 04:14:50;;;;;;;;;;;;;;;5.71;100.00;99523.94;5002317;28;19925;-68
2021/11/22 04:17:15;;;;;;;;;;;;;;;5.54;100.00;99530.78;5002692;28;20214;-68
2021/11/22 04:19:41;;;;;;;;;;;;;;;5.19;100.00;99529.19;5007146;28;19921;-69
2021/11/22 04:22:06;;;;;;;;;;;;;;;5.36;100.00;99531.69;5002873;28;19926;-67
2021/11/22 04:24:32;;;;;;;;;;;;;;;5.53;100.00;99535.06;5007984;28;19928;-69
2021/11/22 04:26:57;;;;;;;;;;;;;;;5.39;100.00;99542.75;5005713;28;19918;-68
2021/11/22 04:29:24;;;;;;;;;;;;;;;5.20;100.00;99552.16;5020043;28;19920;-67
2021/11/22 04:31:50;;;;;;;;;;;;;;;5.18;100.00;99563.25;5004747;28;19925;-68
2021/11/22 04:34:16;;;;;;;;;;;;;;;5.36;100.00;99563.22;5039416;28;20003;-69
2021/11/22 04:36:42;;;;;;;;;;;;;;;5.40;100.00;99569.97;5037539;28;20502;-67
2021/11/22 04:39:07;;;;;;;;;;;;;;;5.62;100.00;99564.84;5035293;28;19929;-68
2021/11/22 04:41:33;;;;;;;;;;;;;;;5.77;100.00;99580.13;5036573;28;19924;-69
2021/11/22 04:44:02;;;;;;;;;;;;;;;5.07;100.00;99575.16;5037046;28;19921;-68
2021/11/22 04:46:27;;;;;;;;;;;;;;;4.94;100.00;99572.59;5036763;28;19939;-69
2021/11/22 04:48:52;;;;;;;;;;;;;;;5.30;100.00;99583.63;5037295;28;19917;-68
2021/11/22 04:51:19;;;;;;;;;;;;;;;5.58;100.00;99583.59;5036189;28;19925;-69
2021/11/22 04:53:44;;;;;;;;;;;;;;;6.00;100.00;99592.88;5035651;28;20663;-68
2021/11/22 04:56:09;;;;;;;;;;;;;;;5.77;100.00;99590.34;5018638;28;19928;-68
2021/11/22 04:58:35;;;;;;;;;;;;;;;5.22;100.00;99596.44;5036900;28;19927;-68
2021/11/22 05:01:00;;;;;;;;;;;;;;;5.25;100.00;99605.78;5036773;28;19924;-69
2021/11/22 05:03:26;;;;;;;;;;;;;;;5.27;100.00;99598.97;5035126;28;19928;-68
2021/11/22 05:05:51;;;;;;;;;;;;;;;5.45;100.00;99596.41;5035605;28;19917;-67
2021/11/22 05:08:16;;;;;;;;;;;;;;;5.86;100.00;99595.44;5035452;28;19981;-68
2021/11/22 05:10:42;;;;;;;;;;;;;;;5.57;100.00;99599.78;5035126;28;19920;-67
2021/11/22 05:13:12;;;;;;;;;;;;;;;5.50;100.00;99596.38;5034613;28;19925;-67
2021/11/22 05:15:38;;;;;;;;;;;;;;;5.81;100.00;99602.25;5035400;28;20387;-67
2021/11/22 05:18:04;;;;;;;;;;;;;;;5.55;100.00;99598.94;5038575;28;19916;-69
2021/11/22 05:20:34;;;;;;;;;;;;;;;5.37;100.00;99603.22;5017866;28;19920;-68
2021/11/22 05:22:59;;;;;;;;;;;;;;;5.18;100.00;99611.75;5038693;28;19952;-67
2021/11/22 05:25:26;;;;;;;;;;;;;;;5.35;100.00;99619.38;5020362;28;19963;-67
2021/11/22 05:27:51;;;;;;;;;;;;;;;5.43;100.00;99618.53;5021781;28;19966;-68
2021/11/22 05:30:18;;;;;;;;;;;;;;;5.47;100.00;99619.34;5013689;28;19925;-67
2021/11/22 05:32:44;;;;;;;;;;;;;;;5.21;100.00;99629.63;5008218;28;19921;-69
2021/11/22 05:35:09;;;;;;;;;;;;;;;5.49;100.00;99634.69;5007547;28;19922;-69
2021/11/22 05:37:36;;;;;;;;;;;;;;;5.94;100.00;99632.91;5008492;28;19921;-69
2021/11/22 05:40:02;;;;;;;;;;;;;;;5.24;100.00;99637.25;5004915;28;19928;-68
2021/11/22 05:42:27;;;;;;;;;;;;;;;5.85;100.00;99639.72;5002392;28;20289;-70
2021/11/22 05:44:52;;;;;;;;;;;;;;;5.37;100.00;99646.63;5004987;28;19936;-70
2021/11/22 05:47:19;;;;;;;;;;;;;;;5.40;100.00;99649.16;5004147;28;20328;-68
2021/11/22 05:49:46;;;;;;;;;;;;;;;5.55;100.00;99662.81;5007754;28;20286;-68
2021/11/22 05:52:13;;;;;;;;;;;;;;;5.05;100.00;99658.53;5006990;28;19964;-69
2021/11/22 05:54:52;;;;;;;;;;;;;;;4.99;100.00;99670.44;5004311;28;19917;-68
2021/11/22 05:57:18;;;;;;;;;;;;;;;4.94;100.00;99666.19;5005910;28;20673;-69
2021/11/22 05:59:45;;;;;;;;;;;;;;;5.33;100.00;99679.81;5006148;28;19961;-68
2021/11/22 06:02:10;;;;;;;;;;;;;;;4.80;100.00;99684.03;5003449;28;20379;-68
2021/11/22 06:04:39;;;;;;;;;;;;;;;4.97;100.00;99682.38;4998664;28;19924;-70
2021/11/22 06:07:11;;;;;;;;;;;;;;;4.83;100.00;99686.56;4998997;28;19951;-70
2021/11/22 06:09:37;;;;;;;;;;;;;;;4.94;100.00;99704.47;5006094;28;19917;-68
2021/11/22 06:12:05;;;;;;;;;;;;;;;4.76;100.00;99700.16;5007540;28;20472;-68
2021/11/22 06:14:33;;;;;;;;;;;;;;;4.69;100.00;99695.91;5007815;28;19932;-70
2021/11/22 06:16:59;;;;;;;;;;;;;;;4.76;100.00;99707.81;5007473;28;20012;-70
2021/11/22 06:19:24;;;;;;;;;;;;;;;5.42;100.00;99700.25;5003927;28;20012;-69
2021/11/22 06:21:50;;;;;;;;;;;;;;;5.06;100.00;99695.97;5005133;28;19929;-70
2021/11/22 06:24:16;;;;;;;;;;;;;;;4.63;100.00;99691.66;5003680;28;19913;-68
2021/11/22 06:26:42;;;;;;;;;;;;;;;4.44;100.00;99695.81;5005259;28;19952;-70
2021/11/22 06:29:09;;;;;;;;;;;;;;;5.03;100.00;99692.56;5011040;28;19921;-68
2021/11/22 06:31:35;;;;;;;;;;;;;;;4.71;100.00;99695.06;5019482;28;19917;-70
2021/11/22 06:34:02;;;;;;;;;;;;;;;4.79;100.00;99712.94;5014402;28;20028;-68
2021/11/22 06:36:27;;;;;;;;;;;;;;;5.09;100.00;99712.16;5015467;28;19968;-69
2021/11/22 06:38:53;;;;;;;;;;;;;;;4.76;100.00;99712.94;5016972;28;19951;-68
2021/11/22 06:41:19;;;;;;;;;;;;;;;4.64;100.00;99712.91;4998678;28;21150;-69
2021/11/22 06:43:45;;;;;;;;;;;;;;;4.75;100.00;99714.63;5016579;28;19917;-68
2021/11/22 06:46:11;;;;;;;;;;;;;;;4.71;100.00;99719.72;5015193;28;19956;-69
2021/11/22 06:48:37;;;;;;;;;;;;;;;5.11;100.00;99730.91;5016192;28;21021;-69
2021/11/22 06:51:04;;;;;;;;;;;;;;;5.00;100.00;99733.41;5015564;28;20346;-68
2021/11/22 06:53:29;;;;;;;;;;;;;;;4.93;100.00;99736.81;5015946;28;19921;-68
2021/11/22 06:55:54;;;;;;;;;;;;;;;5.39;100.00;99736.03;5015509;28;19921;-68
2021/11/22 06:58:20;;;;;;;;;;;;;;;4.77;100.00;99742.72;5017040;28;19924;-70
2021/11/22 07:00:46;;;;;;;;;;;;;;;5.16;100.00;99738.56;5015342;28;19916;-68
2021/11/22 07:03:12;;;;;;;;;;;;;;;4.69;100.00;99750.31;5015508;28;19917;-70
2021/11/22 07:05:37;;;;;;;;;;;;;;;5.28;100.00;99753.03;5016226;28;19967;-69
2021/11/22 07:08:07;;;;;;;;;;;;;;;5.28;100.00;99747.94;5015389;28;20386;-69
2021/11/22 07:10:34;;;;;;;;;;;;;;;4.64;100.00;99763.91;5016969;28;20327;-68
2021/11/22 07:13:01;;;;;;;;;;;;;;;5.12;100.00;99757.25;5016268;28;20009;-69
2021/11/22 07:15:33;;;;;;;;;;;;;;;4.78;100.00;99757.16;5015351;28;19927;-69
2021/11/22 07:18:00;;;;;;;;;;;;;;;4.86;100.00;99763.16;5016650;28;19921;-68
2021/11/22 07:20:26;;;;;;;;;;;;;;;4.45;100.00;99773.16;5011446;28;19972;-69
2021/11/22 07:22:51;;;;;;;;;;;;;;;4.75;100.00;99778.41;5013442;28;20061;-68
2021/11/22 07:25:16;;;;;;;;;;;;;;;4.93;100.00;99787.84;5013813;28;19914;-70
2021/11/22 07:27:43;;;;;;;;;;;;;;;4.70;100.00;99795.41;5014399;28;19928;-68
2021/11/22 07:30:08;;;;;;;;;;;;;;;4.61;100.00;99810.69;5027372;28;19921;-67
2021/11/22 07:32:34;;;;;;;;;;;;;;;4.79;100.00;99809.91;5035341;28;19923;-69
2021/11/22 07:35:03;;;;;;;;;;;;;;;4.66;100.00;99818.34;5020459;28;20025;-68
2021/11/22 07:37:30;;;;;;;;;;;;;;;4.80;100.00;99821.81;5040608;28;19920;-69
2021/11/22 07:39:55;;;;;;;;;;;;;;;4.79;100.00;99823.53;5022429;28;19921;-67
2021/11/22 07:42:20;;;;;;;;;;;;;;;4.58;100.00;99831.94;5021754;28;19924;-70
2021/11/22 07:44:49;;;;;;;;;;;;;;;4.60;100.00;99844.66;5039213;28;19928;-69
2021/11/22 07:47:14;;;;;;;;;;;;;;;4.70;100.00;99851.56;5038752;28;20371;-69
2021/11/22 07:49:46;;;;;;;;;;;;;;;4.55;100.00;99852.31;5020692;28;19971;-68
2021/11/22 07:52:22;;;;;;;;;;;;;;;4.65;100.00;99858.28;5038029;28;19913;-68
2021/11/22 07:54:52;;;;;;;;;;;;;;;4.47;100.00;99868.41;5020261;28;19913;-68
2021/11/22 07:57:17;;;;;;;;;;;;;;;4.90;100.00;99874.59;5039515;28;19920;-68
2021/11/22 07:59:43;;;;;;;;;;;;;;;4.56;100.00;99882.09;5020320;28;20037;-69
2021/11/22 08:02:09;;;;;;;;;;;;;;;4.69;100.00;99874.50;5019480;28;20042;-68
2021/11/22 08:04:37;;;;;;;;;;;;;;;5.06;100.00;99874.69;5039380;28;20619;-68
2021/11/22 08:07:14;;;;;;;;;;;;;;;4.38;100.00;99882.81;5038670;28;20382;-68
2021/11/22 08:09:54;;;;;;;;;;;;;;;4.48;100.00;99896.47;5039499;28;19913;-70
2021/11/22 08:12:28;;;;;;;;;;;;;;;4.51;100.00;99896.47;5036628;28;19921;-70
2021/11/22 08:14:55;;;;;;;;;;;;;;;4.86;100.00;99897.53;5038772;28;19924;-68
2021/11/22 08:17:22;;;;;;;;;;;;;;;4.55;100.00;99893.13;5038683;28;19964;-68
2021/11/22 08:19:47;;;;;;;;;;;;;;;4.73;100.00;99897.47;5021671;28;19913;-69
2021/11/22 08:22:13;;;;;;;;;;;;;;;4.74;100.00;99898.34;5038834;28;20520;-70
2021/11/22 08:24:38;;;;;;;;;;;;;;;4.48;100.00;99899.03;5038838;28;19964;-69
2021/11/22 08:27:04;;;;;;;;;;;;;;;4.90;100.00;99900.13;5037913;28;19924;-69
2021/11/22 08:29:29;;;;;;;;;;;;;;;4.98;100.00;99905.28;5023567;28;20013;-70
2021/11/22 08:31:54;;;;;;;;;;;;;;;5.12;100.00;99905.34;4998096;28;19917;-69
2021/11/22 08:34:20;;;;;;;;;;;;;;;4.79;100.00;99907.75;4998953;28;19922;-68
2021/11/22 08:36:46;;;;;;;;;;;;;;;4.42;100.00;99910.88;4998945;28;20020;-69
2021/11/22 08:39:12;;;;;;;;;;;;;;;4.63;100.00;99911.03;4998217;28;19918;-68
2021/11/22 08:41:37;;;;;;;;;;;;;;;4.78;100.00;99915.38;4980924;28;20385;-69
2021/11/22 08:44:03;;;;;;;;;;;;;;;4.83;100.00;99916.25;4998725;28;20380;-69
2021/11/22 08:46:35;;;;;;;;;;;;;;;5.13;100.00;99917.25;4958356;28;19926;-69
2021/11/22 08:49:02;;;;;;;;;;;;;;;4.71;100.00;99918.72;4989020;28;19921;-70
2021/11/22 08:51:28;;;;;;;;;;;;;;;5.44;100.00;99916.53;4978906;28;20468;-68
2021/11/22 08:53:53;;;;;;;;;;;;;;;5.07;100.00;99912.16;4996569;28;19917;-69
2021/11/22 08:56:18;;;;;;;;;;;;;;;5.55;100.00;99915.75;4991927;28;19921;-68
2021/11/22 08:58:46;;;;;;;;;;;;;;;5.42;100.00;99909.72;4997410;28;19957;-69
2021/11/22 09:01:13;;;;;;;;;;;;;;;5.92;100.00;99905.59;4996397;28;19918;-68
2021/11/22 09:03:39;;;;;;;;;;;;;;;5.82;100.00;99904.72;4996480;28;19957;-69
2021/11/22 09:06:06;;;;;;;;;;;;;;;5.77;100.00;99906.41;4996989;28;20364;-69
2021/11/22 09:08:31;;;;;;;;;;;;;;;5.73;100.00;99915.78;4964307;28;20439;-68
2021/11/22 09:10:57;;;;;;;;;;;;;;;5.56;100.00;99922.53;4997241;28;19917;-68
2021/11/22 09:13:23;;;;;;;;;;;;;;;6.15;100.00;99924.38;5000103;28;19972;-69
2021/11/22 09:15:49;;;;;;;;;;;;;;;5.79;100.00;99926.03;4981280;28;19922;-70
2021/11/22 09:18:15;;;;;;;;;;;;;;;5.77;100.00;99931.97;4997649;28;20292;-68
2021/11/22 09:20:41;;;;;;;;;;;;;;;5.51;100.00;99930.19;4998303;28;19956;-68
2021/11/22 09:23:07;;;;;;;;;;;;;;;5.71;100.00;99932.81;4998249;28;20367;-69
2021/11/22 09:25:35;;;;;;;;;;;;;;;5.73;100.00;99933.69;4980772;28;19920;-69
2021/11/22 09:28:00;;;;;;;;;;;;;;;4.93;100.00;99946.09;4992807;28;19988;-69
2021/11/22 09:30:26;;;;;;;;;;;;;;;5.03;100.00;99955.50;4996071;28;19929;-69
2021/11/22 09:32:51;;;;;;;;;;;;;;;5.50;100.00;99959.16;5020810;28;19936;-69
2021/11/22 09:35:18;;;;;;;;;;;;;;;5.75;100.00;99954.97;5020278;28;19913;-68
2021/11/22 09:37:56;;;;;;;;;;;;;;;5.18;100.00;99962.41;5017543;28;20677;-68
2021/11/22 09:40:22;;;;;;;;;;;;;;;5.24;100.00;99964.13;5018051;28;19952;-68
2021/11/22 09:42:47;;;;;;;;;;;;;;;5.00;100.00;99977.63;4999251;28;20401;-67
2021/11/22 09:45:16;;;;;;;;;;;;;;;5.09;100.00;99981.94;4997534;28;19917;-68
2021/11/22 09:47:41;;;;;;;;;;;;;;;5.15;100.00;99990.47;5000229;28;19948;-67
2021/11/22 09:50:08;;;;;;;;;;;;;;;5.61;100.00;99987.28;5010538;28;19921;-67
2021/11/22 09:52:34;;;;;;;;;;;;;;;5.50;100.00;99994.06;5013871;28;20359;-67
2021/11/22 09:54:59;;;;;;;;;;;;;;;5.67;100.00;99997.53;5012638;28;20363;-67
2021/11/22 09:57:25;;;;;;;;;;;;;;;4.91;100.00;99991.19;5016444;28;19928;-68
2021/11/22 09:59:51;;;;;;;;;;;;;;;5.01;100.00;100000.59;5015689;28;19931;-67
2021/11/22 10:02:16;;;;;;;;;;;;;;;4.78;100.00;100005.53;5014686;28;19917;-68
2021/11/22 10:04:43;;;;;;;;;;;;;;;5.33;100.00;100012.69;5013024;28;20035;-67
2021/11/22 10:07:09;;;;;;;;;;;;;;;5.18;100.00;100010.94;5014499;28;19921;-67
2021/11/22 10:09:37;;;;;;;;;;;;;;;4.78;100.00;100008.09;5012696;28;19940;-68
2021/11/22 10:12:04;;;;;;;;;;;;;;;5.09;100.00;100008.31;5015268;28;19921;-69
2021/11/22 10:14:34;;;;;;;;;;;;;;;5.44;100.00;100005.94;5012888;28;19932;-68
2021/11/22 10:17:00;;;;;;;;;;;;;;;5.92;100.00;99995.06;5011429;28;19925;-67
2021/11/22 10:19:26;;;;;;;;;;;;;;;5.76;100.00;100002.69;4996722;28;19944;-66
2021/11/22 10:21:53;;;;;;;;;;;;;;;5.91;100.00;99995.91;5014229;28;19964;-67
2021/11/22 10:24:21;;;;;;;;;;;;;;;6.69;100.00;99988.38;4997534;28;20336;-68
2021/11/22 10:26:48;;;;;;;;;;;;;;;5.86;100.00;99983.09;4994166;28;19928;-68
2021/11/22 10:29:34;;;;;;;;;;;;;;;7.06;100.00;99983.22;4996920;28;20040;-68
2021/11/22 10:32:01;;;;;;;;;;;;;;;7.06;100.00;99991.75;5011161;28;19925;-68
2021/11/22 10:34:26;;;;;;;;;;;;;;;6.61;100.00;99984.97;4995934;28;19924;-68
2021/11/22 10:37:06;;;;;;;;;;;;;;;6.44;100.00;99987.53;5013246;28;20380;-68
2021/11/22 10:39:33;;;;;;;;;;;;;;;5.82;100.00;99989.09;4991240;28;19979;-68
2021/11/22 10:42:03;;;;;;;;;;;;;;;6.58;100.00;99975.56;4996340;28;19917;-69
2021/11/22 10:44:35;;;;;;;;;;;;;;;5.40;100.00;99994.00;5012200;28;19921;-69
2021/11/22 10:47:15;;;;;;;;;;;;;;;5.47;100.00;99984.66;5014173;28;19925;-69
2021/11/22 10:49:44;;;;;;;;;;;;;;;5.47;100.00;99994.03;5010765;28;19921;-68
2021/11/22 10:52:12;;;;;;;;;;;;;;;5.23;100.00;99996.47;5013065;28;19921;-70
2021/11/22 10:54:57;;;;;;;;;;;;;;;5.07;100.00;99997.25;5011672;28;19928;-69
2021/11/22 10:57:23;;;;;;;;;;;;;;;5.31;100.00;99996.50;4992326;28;19972;-69
2021/11/22 10:59:49;;;;;;;;;;;;;;;5.71;100.00;99995.84;5013766;28;19969;-69
2021/11/22 11:02:14;;;;;;;;;;;;;;;6.03;100.00;99994.28;5011896;28;19917;-69
2021/11/22 11:04:46;;;;;;;;;;;;;;;5.59;100.00;99994.13;5009903;28;20437;-68
2021/11/22 11:07:11;;;;;;;;;;;;;;;5.85;100.00;100007.81;5016537;28;20410;-68
2021/11/22 11:09:43;;;;;;;;;;;;;;;6.37;100.00;100002.00;4998986;28;20004;-70
2021/11/22 11:12:19;;;;;;;;;;;;;;;5.85;100.00;100000.16;5015567;28;19920;-68
2021/11/22 11:14:47;;;;;;;;;;;;;;;5.92;100.00;100008.69;5014335;28;20011;-67
2021/11/22 11:17:19;;;;;;;;;;;;;;;5.28;100.00;100014.38;4997924;28;19917;-69
2021/11/22 11:19:49;;;;;;;;;;;;;;;5.51;100.00;100013.66;5014747;28;19979;-69
2021/11/22 11:22:16;;;;;;;;;;;;;;;5.61;100.00;100020.50;4998419;28;19917;-69
2021/11/22 11:24:42;;;;;;;;;;;;;;;6.52;100.00;100011.41;4998510;28;20000;-67
2021/11/22 11:27:08;;;;;;;;;;;;;;;6.70;100.00;100000.31;5015971;28;19988;-68
2021/11/22 11:29:33;;;;;;;;;;;;;;;7.19;100.00;100004.53;5012472;28;19925;-69
2021/11/22 11:31:59;;;;;;;;;;;;;;;6.33;100.00;100002.00;4983804;28;20531;-69
2021/11/22 11:34:30;;;;;;;;;;;;;;;5.91;100.00;100006.13;4994221;28;20561;-69
2021/11/22 11:37:07;;;;;;;;;;;;;;;6.65;100.00;100000.31;4996199;28;19925;-69
2021/11/22 11:39:52;;;;;;;;;;;;;;;6.46;100.00;99996.91;4997186;28;19928;-69
2021/11/22 11:42:30;;;;;;;;;;;;;;;6.07;100.00;100010.50;4990786;28;20593;-69
2021/11/22 11:45:23;;;;;;;;;;;;;;;6.70;100.00;100005.44;4994805;28;19952;-70
2021/11/22 11:47:49;;;;;;;;;;;;;;;7.41;100.00;100008.75;4996908;28;20486;-68
2021/11/22 11:50:20;;;;;;;;;;;;;;;7.45;100.00;99996.78;4995549;28;20352;-68
2021/11/22 11:52:54;;;;;;;;;;;;;;;7.89;100.00;99999.16;4996219;28;19920;-68
2021/11/22 11:55:19;;;;;;;;;;;;;;;7.45;100.00;99995.06;4996641;28;19944;-68
2021/11/22 11:57:44;;;;;;;;;;;;;;;7.50;100.00;99989.91;4995700;28;19957;-69
2021/11/22 12:00:20;;;;;;;;;;;;;;;8.07;100.00;99992.22;4983732;28;19922;-69
2021/11/22 12:02:54;;;;;;;;;;;;;;;7.87;100.00;100000.88;4994488;28;19917;-68
2021/11/22 12:05:20;;;;;;;;;;;;;;;7.16;100.00;99989.16;4979942;28;19917;-69
2021/11/22 12:07:47;;;;;;;;;;;;;;;6.75;100.00;99992.63;4997278;28;19913;-68
2021/11/22 12:10:22;;;;;;;;;;;;;;;6.86;100.00;99999.44;4995377;28;19961;-68
2021/11/22 12:12:59;;;;;;;;;;;;;;;7.07;100.00;99998.59;4995097;28;19921;-69
2021/11/22 12:15:37;;;;;;;;;;;;;;;7.10;100.00;100001.13;4995297;28;20061;-66
2021/11/22 12:18:03;;;;;;;;;;;;;;;7.71;100.00;99994.97;4996581;28;19917;-68
2021/11/22 12:20:35;;;;;;;;;;;;;;;7.74;100.00;99989.81;4975997;28;19933;-68
2021/11/22 12:23:05;;;;;;;;;;;;;;;6.84;100.00;99992.63;4996640;28;19937;-67
2021/11/22 12:25:39;;;;;;;;;;;;;;;7.05;100.00;100002.00;4998949;28;19952;-68
2021/11/22 12:28:34;;;;;;;;;;;;;;;7.22;100.00;100004.53;4999068;28;20932;-68
2021/11/22 12:31:04;;;;;;;;;;;;;;;6.38;100.00;100002.88;5033712;28;19920;-68
2021/11/22 12:33:33;;;;;;;;;;;;;;;6.49;100.00;100006.28;5020931;28;19960;-69
2021/11/22 12:36:03;;;;;;;;;;;;;;;6.15;100.00;100003.69;5020840;28;20338;-69
2021/11/22 12:38:36;;;;;;;;;;;;;;;6.62;100.00;100002.03;5037425;28;20407;-68
2021/11/22 12:41:05;;;;;;;;;;;;;;;5.59;100.00;100009.44;5037657;28;19979;-69
2021/11/22 12:43:51;;;;;;;;;;;;;;;6.47;100.00;99998.59;5003361;28;19955;-70
2021/11/22 12:46:37;;;;;;;;;;;;;;;6.11;100.00;99999.41;5016172;28;19921;-69
2021/11/22 12:49:22;;;;;;;;;;;;;;;6.04;100.00;100003.66;5017906;28;20003;-69
2021/11/22 12:51:49;;;;;;;;;;;;;;;6.05;100.00;100001.97;5039936;28;20402;-69
2021/11/22 12:54:18;;;;;;;;;;;;;;;6.44;100.00;99997.75;5037139;28;19917;-68
2021/11/22 12:56:43;;;;;;;;;;;;;;;6.21;100.00;100001.13;5017804;28;20382;-69
2021/11/22 12:59:18;;;;;;;;;;;;;;;6.49;100.00;99996.06;5038977;28;20335;-69
2021/11/22 13:01:50;;;;;;;;;;;;;;;6.18;100.00;99996.03;5020834;28;19913;-69
2021/11/22 13:04:35;;;;;;;;;;;;;;;6.20;100.00;100004.56;5037040;28;19921;-69
2021/11/22 13:07:22;;;;;;;;;;;;;;;5.94;100.00;100011.28;5031618;28;19946;-69
2021/11/22 13:09:50;;;;;;;;;;;;;;;5.82;100.00;100012.94;5039441;28;19916;-69
2021/11/22 13:12:29;;;;;;;;;;;;;;;5.62;100.00;100014.56;5020089;28;19923;-69
2021/11/22 13:15:02;;;;;;;;;;;;;;;5.99;100.00;100025.78;5040082;28;19921;-68
2021/11/22 13:17:31;;;;;;;;;;;;;;;5.85;100.00;100028.28;5004512;28;19924;-69
2021/11/22 13:19:56;;;;;;;;;;;;;;;5.94;100.00;100030.03;5037026;28;20427;-69
2021/11/22 13:22:22;;;;;;;;;;;;;;;5.80;100.00;100029.97;5021697;28;20003;-68
2021/11/22 13:24:49;;;;;;;;;;;;;;;5.91;100.00;100031.69;5037745;28;19974;-69
2021/11/22 13:27:14;;;;;;;;;;;;;;;6.17;100.00;100030.09;5019163;28;20360;-69
2021/11/22 13:29:40;;;;;;;;;;;;;;;6.35;100.00;100038.69;5012362;28;20012;-69
2021/11/22 13:32:08;;;;;;;;;;;;;;;5.94;100.00;100041.94;5016390;28;19917;-69
2021/11/22 13:34:34;;;;;;;;;;;;;;;6.13;100.00;100033.50;5017478;28;20631;-68
2021/11/22 13:37:01;;;;;;;;;;;;;;;5.79;100.00;100038.50;5016186;28;20007;-69
2021/11/22 13:39:36;;;;;;;;;;;;;;;6.12;100.00;100042.03;5015621;28;19979;-69
2021/11/22 13:42:07;;;;;;;;;;;;;;;5.83;100.00;100045.31;5015804;28;20008;-70
2021/11/22 13:44:51;;;;;;;;;;;;;;;6.15;100.00;100047.16;5000380;28;19939;-68
2021/11/22 13:47:22;;;;;;;;;;;;;;;5.56;100.00;100051.13;5015148;28;19941;-68
2021/11/22 13:49:48;;;;;;;;;;;;;;;5.74;100.00;100047.81;5016688;28;19917;-68
2021/11/22 13:52:34;;;;;;;;;;;;;;;5.84;100.00;100054.69;5015802;28;19917;-69
2021/11/22 13:55:00;;;;;;;;;;;;;;;5.93;100.00;100047.91;5016142;28;19913;-69
2021/11/22 13:57:27;;;;;;;;;;;;;;;6.01;100.00;100053.94;5014049;28;19928;-68
2021/11/22 13:59:55;;;;;;;;;;;;;;;7.06;100.00;100040.41;5015841;28;19921;-69
2021/11/22 14:02:21;;;;;;;;;;;;;;;6.68;100.00;100038.72;5014783;28;19921;-67
2021/11/22 14:04:51;;;;;;;;;;;;;;;7.36;100.00;100033.53;4999485;28;19986;-68
2021/11/22 14:07:21;;;;;;;;;;;;;;;7.13;100.00;100029.28;4992045;28;19975;-69
2021/11/22 14:09:54;;;;;;;;;;;;;;;7.23;100.00;100031.84;5012819;28;19995;-69
2021/11/22 14:12:34;;;;;;;;;;;;;;;7.20;100.00;100026.72;5015665;28;19917;-69
2021/11/22 14:15:02;;;;;;;;;;;;;;;6.34;100.00;100026.72;5015634;28;19917;-70
2021/11/22 14:17:28;;;;;;;;;;;;;;;5.78;100.00;100047.00;5014592;28;19936;-68
2021/11/22 14:20:10;;;;;;;;;;;;;;;5.70;100.00;100052.91;5016830;28;20007;-68
2021/11/22 14:22:46;;;;;;;;;;;;;;;5.71;100.00;100050.38;5015577;28;20007;-69
2021/11/22 14:25:22;;;;;;;;;;;;;;;6.03;100.00;100058.19;5009849;28;20008;-69
2021/11/22 14:27:51;;;;;;;;;;;;;;;5.30;100.00;100061.22;5014824;28;19928;-69
2021/11/22 14:30:25;;;;;;;;;;;;;;;5.26;100.00;100074.81;5025099;28;19925;-69
2021/11/22 14:33:02;;;;;;;;;;;;;;;5.25;100.00;100075.66;5018254;28;19927;-69
2021/11/22 14:35:29;;;;;;;;;;;;;;;5.24;100.00;100081.59;5023535;28;19932;-68
2021/11/22 14:38:08;;;;;;;;;;;;;;;5.64;100.00;100092.09;5038938;28;20024;-68
2021/11/22 14:40:34;;;;;;;;;;;;;;;5.59;100.00;100086.94;5021171;28;20302;-69
2021/11/22 14:43:09;;;;;;;;;;;;;;;5.78;100.00;100092.16;5020603;28;19999;-68
2021/11/22 14:45:57;;;;;;;;;;;;;;;6.54;100.00;100086.47;5021139;28;19920;-68
2021/11/22 14:48:33;;;;;;;;;;;;;;;6.15;100.00;100090.63;5036198;28;20035;-68
2021/11/22 14:51:21;;;;;;;;;;;;;;;5.99;100.00;100086.31;5015984;28;20607;-68
2021/11/22 14:54:07;;;;;;;;;;;;;;;5.62;100.00;100092.06;5036899;28;19963;-68
2021/11/22 14:56:40;;;;;;;;;;;;;;;5.07;100.00;100085.75;5037913;28;20012;-68
2021/11/22 14:59:18;;;;;;;;;;;;;;;5.59;100.00;100091.22;5038092;28;19921;-68
2021/11/22 15:01:44;;;;;;;;;;;;;;;5.53;100.00;100092.00;5037411;28;20750;-68
2021/11/22 15:04:12;;;;;;;;;;;;;;;5.79;100.00;100097.28;5018753;28;19917;-68
2021/11/22 15:06:48;;;;;;;;;;;;;;;6.01;100.00;100094.84;5037792;28;20026;-68
2021/11/22 15:09:24;;;;;;;;;;;;;;;5.89;100.00;100095.63;5036205;28;20287;-68
2021/11/22 15:11:57;;;;;;;;;;;;;;;5.59;100.00;100096.31;5036387;28;20639;-68
2021/11/22 15:14:41;;;;;;;;;;;;;;;6.43;100.00;100083.91;5020875;28;21414;-68
2021/11/22 15:17:09;;;;;;;;;;;;;;;5.58;100.00;100097.16;5035927;28;20462;-68
2021/11/22 15:19:34;;;;;;;;;;;;;;;5.91;100.00;100103.28;5036389;28;20475;-68
2021/11/22 15:22:01;;;;;;;;;;;;;;;5.00;100.00;100101.00;5036003;28;19917;-68
2021/11/22 15:24:30;;;;;;;;;;;;;;;5.42;100.00;100094.50;5035271;28;19917;-68
2021/11/22 15:26:56;;;;;;;;;;;;;;;5.76;100.00;100098.97;5017941;28;19921;-68
2021/11/22 15:29:24;;;;;;;;;;;;;;;5.41;100.00;100105.56;5035602;28;19959;-68
2021/11/22 15:31:58;;;;;;;;;;;;;;;5.91;100.00;100100.72;4996212;28;20028;-68
2021/11/22 15:34:34;;;;;;;;;;;;;;;5.72;100.00;100098.06;4995723;28;19929;-68
2021/11/22 15:37:00;;;;;;;;;;;;;;;5.96;100.00;100107.63;4978693;28;20458;-68
2021/11/22 15:39:36;;;;;;;;;;;;;;;5.72;100.00;100102.34;5007827;28;19931;-69
2021/11/22 15:42:02;;;;;;;;;;;;;;;6.12;100.00;100107.69;4993341;28;19961;-68
2021/11/22 15:44:45;;;;;;;;;;;;;;;6.30;100.00;100112.03;4994659;28;20280;-68
2021/11/22 15:47:12;;;;;;;;;;;;;;;6.39;100.00;100112.03;4998034;28;19918;-68
2021/11/22 15:49:45;;;;;;;;;;;;;;;5.71;100.00;100111.72;4995638;28;20385;-68